This is the latest recevied weather packets stored in our database for station/object DG1GMY-13. If no packets are shown the sender has not sent any weather packets the latest 10 day(s).
| Time | Temp. | Humidity | Pressure | Rain* | Wind** | Luminosity | Snow |
|---|---|---|---|---|---|---|---|
| 1787428547 | 15.56° C | 75% | 1022.5 hPa | - | - | - | - |
| 1787426741 | 16.11° C | 69% | 1022.4 hPa | - | - | - | - |
| 1787424935 | 16.67° C | 66% | 1022 hPa | - | - | - | - |
| 1787423129 | 17.22° C | 66% | 1021.7 hPa | - | - | - | - |
| 1787421323 | 18.89° C | 62% | 1021.5 hPa | - | - | - | - |
| 1787419517 | 20° C | 55% | 1021.3 hPa | - | - | - | - |
| 1787417711 | 20° C | 53% | 1021.1 hPa | - | - | - | - |
| 1787415905 | 20° C | 54% | 1021.1 hPa | - | - | - | - |
| 1787414099 | 20° C | 56% | 1021 hPa | - | - | - | - |
| 1787412293 | 20.56° C | 52% | 1021.1 hPa | - | - | - | - |
| 1787410487 | 20.56° C | 54% | 1021.1 hPa | - | - | - | - |
| 1787408681 | 21.11° C | 55% | 1021.2 hPa | - | - | - | - |
| 1787406875 | 20° C | 59% | 1021.3 hPa | - | - | - | - |
| 1787405069 | 21.11° C | 56% | 1021.1 hPa | - | - | - | - |
| 1787403263 | 20° C | 61% | 1021.2 hPa | - | - | - | - |
| 1787401457 | 22.22° C | 56% | 1021.1 hPa | - | - | - | - |
| 1787399651 | 21.11° C | 64% | 1021.1 hPa | - | - | - | - |
| 1787397845 | 20° C | 66% | 1021.1 hPa | - | - | - | - |
| 1787396039 | 20.56° C | 66% | 1021 hPa | - | - | - | - |
| 1787394234 | 20° C | 71% | 1021 hPa | - | - | - | - |
| 1787392428 | 18.89° C | 77% | 1021 hPa | - | - | - | - |
| 1787390622 | 18.33° C | 80% | 1021 hPa | - | - | - | - |
| 1787388816 | 17.78° C | 84% | 1020.7 hPa | - | - | - | - |
| 1787387010 | 16.67° C | 88% | 1020.4 hPa | - | - | - | - |
| 1787385204 | 16.11° C | 90% | 1020 hPa | - | - | - | - |
* Rain since midnight (hover to see other rain measurements)
** Current wind speed in m/s (hover to see current wind gust speed)